| Date | Time | Temp. (oF) | Dew Point (oF) | Rel. Hum. (%) | Press. (in.) | Wind Dir. | Wind Speed (mph) | Hourly Rainfall (in.) |
|
|---|---|---|---|---|---|---|---|---|---|
| 1 | 11/13 | 00:00 | 45 | 40 | 84 | 30.30 | S | 5 | 0.00 |
| 2 | 11/12 | 23:00 | 46 | 39 | 79 | 30.31 | SSE | 2 | 0.00 |
| 3 | 11/12 | 22:00 | 47 | 39 | 75 | 30.31 | SE | 3 | 0.00 |
| 4 | 11/12 | 21:00 | 47 | 37 | 69 | 30.31 | SE | 2 | 0.00 |
| 5 | 11/12 | 20:00 | 48 | 35 | 62 | 30.30 | SSE | 4 | 0.00 |
| 6 | 11/12 | 19:00 | 50 | 35 | 57 | 30.29 | SSE | 4 | 0.00 |
| 7 | 11/12 | 18:00 | 51 | 34 | 53 | 30.28 | S | 6 | 0.00 |
| 8 | 11/12 | 17:00 | 55 | 34 | 46 | 30.26 | SSE | 6 | 0.00 |
| 9 | 11/12 | 16:00 | 59 | 31 | 36 | 30.24 | SSW | 6 | 0.00 |
| 10 | 11/12 | 15:00 | 61 | 32 | 35 | 30.24 | S | 7 | 0.00 |
| 11 | 11/12 | 14:00 | 61 | 32 | 35 | 30.24 | SSE | 7 | 0.00 |
| 12 | 11/12 | 13:00 | 61 | 37 | 42 | 30.26 | SSW | 5 | 0.00 |
| 13 | 11/12 | 12:00 | 58 | 38 | 49 | 30.28 | WSW | 5 | 0.00 |
| 14 | 11/12 | 11:00 | 52 | 39 | 63 | 30.32 | S | 2 | 0.00 |
| 15 | 11/12 | 10:00 | 46 | 42 | 86 | 30.33 | SSE | 0 | 0.00 |
| 16 | 11/12 | 09:00 | 38 | 37 | 100 | 30.33 | SSE | 1 | 0.00 |
| 17 | 11/12 | 08:00 | 30 | 30 | 100 | 30.32 | NNW | 1 | 0.00 |
| 18 | 11/12 | 07:00 | 28 | 27 | 99 | 30.30 | WNW | 0 | 0.00 |
| 19 | 11/12 | 06:00 | 28 | 27 | 98 | 30.29 | WNW | 0 | 0.00 |
| 20 | 11/12 | 05:00 | 28 | 27 | 98 | 30.28 | WNW | 0 | 0.00 |
| 21 | 11/12 | 04:00 | 29 | 28 | 97 | 30.26 | WNW | 0 | 0.00 |
| 22 | 11/12 | 03:00 | 30 | 29 | 96 | 30.25 | WNW | 0 | 0.00 |
| 23 | 11/12 | 02:00 | 30 | 28 | 94 | 30.25 | SW | 0 | 0.00 |
| 24 | 11/12 | 01:00 | 31 | 28 | 92 | 30.23 | SW | 0 | 0.00 |